createdAt,value
2022-10-01T00:00:55.849Z,77.34
2022-10-01T00:03:23.963Z,77.21
2022-10-01T00:06:05.374Z,77.13
2022-10-01T00:08:32.691Z,77.33
2022-10-01T00:11:02.487Z,77.41
2022-10-01T00:13:30.619Z,77.31
2022-10-01T00:15:57.657Z,77.18
2022-10-01T00:18:24.626Z,77.39
2022-10-01T00:20:51.593Z,77.56
2022-10-01T00:23:19.892Z,77.79
2022-10-01T00:25:46.855Z,77.89
2022-10-01T00:28:13.821Z,77.89
2022-10-01T00:30:46.613Z,77.79
2022-10-01T00:33:13.763Z,77.79
2022-10-01T00:35:40.703Z,77.87
2022-10-01T00:38:07.609Z,77.90
2022-10-01T00:40:34.672Z,77.75
2022-10-01T00:43:01.605Z,77.36
2022-10-01T00:45:28.557Z,77.18
2022-10-01T00:47:56.346Z,77.21
2022-10-01T00:50:33.029Z,77.05
2022-10-01T00:53:01.878Z,76.97
2022-10-01T00:55:31.603Z,76.91
2022-10-01T00:57:58.602Z,76.66
2022-10-01T01:00:25.580Z,76.67
2022-10-01T01:02:52.531Z,76.69
2022-10-01T01:05:19.891Z,76.85
2022-10-01T01:07:48.298Z,76.96
2022-10-01T01:10:17.146Z,76.84
2022-10-01T01:13:16.283Z,76.80
2022-10-01T01:16:13.871Z,76.72
2022-10-01T01:18:52.915Z,76.65
2022-10-01T01:21:30.436Z,76.77
2022-10-01T01:24:15.618Z,76.72
2022-10-01T01:27:16.373Z,76.70
2022-10-01T01:29:53.180Z,76.64
2022-10-01T01:32:32.925Z,76.63
2022-10-01T01:35:01.169Z,76.67
2022-10-01T01:37:31.977Z,76.73
2022-10-01T01:39:59.086Z,76.74
2022-10-01T01:42:46.493Z,76.88
2022-10-01T01:45:16.204Z,76.78
2022-10-01T01:47:43.760Z,76.83
2022-10-01T01:50:11.021Z,76.83
2022-10-01T01:52:38.499Z,76.95
2022-10-01T01:55:08.710Z,77.18
2022-10-01T01:57:42.868Z,77.11
2022-10-01T02:00:11.966Z,77.00
2022-10-01T02:02:43.541Z,77.07
2022-10-01T02:08:13.089Z,77.24
2022-10-01T02:10:59.388Z,77.23
2022-10-01T02:13:42.199Z,77.25
2022-10-01T02:16:09.279Z,77.53
2022-10-01T02:18:40.701Z,77.75
2022-10-01T02:21:17.372Z,77.82
2022-10-01T02:23:51.827Z,77.86
2022-10-01T02:26:20.784Z,77.86
2022-10-01T02:28:48.452Z,77.96
2022-10-01T02:31:16.022Z,78.03
2022-10-01T02:33:43.464Z,78.03
2022-10-01T02:36:10.611Z,78.18
2022-10-01T02:38:38.126Z,78.20
2022-10-01T02:41:06.003Z,78.29
2022-10-01T02:43:40.635Z,78.41
2022-10-01T02:46:46.415Z,78.59
2022-10-01T02:49:13.607Z,78.73
2022-10-01T02:51:57.510Z,78.79
2022-10-01T02:54:28.655Z,78.97
2022-10-01T02:57:14.859Z,79.01
2022-10-01T02:59:42.001Z,79.16
2022-10-01T03:02:09.232Z,79.17
2022-10-01T03:04:36.443Z,79.41
2022-10-01T03:07:26.613Z,79.59
2022-10-01T03:13:32.224Z,79.52
2022-10-01T03:19:44.856Z,79.83
2022-10-01T03:26:31.150Z,79.64
2022-10-01T03:28:58.222Z,79.60
2022-10-01T03:31:25.494Z,79.89
2022-10-01T03:33:52.679Z,80.04
2022-10-01T03:36:19.779Z,80.13
2022-10-01T03:38:46.834Z,80.04
2022-10-01T03:41:16.224Z,79.78
2022-10-01T03:43:43.476Z,79.78
2022-10-01T03:46:13.574Z,79.82
2022-10-01T03:48:40.744Z,79.84
2022-10-01T03:51:07.799Z,79.71
2022-10-01T03:53:34.939Z,79.58
2022-10-01T03:56:02.310Z,79.54
2022-10-01T03:58:29.752Z,79.65
2022-10-01T04:00:57.927Z,79.83
2022-10-01T04:03:25.178Z,80.02
2022-10-01T04:05:52.327Z,79.96
2022-10-01T04:08:24.041Z,79.90
2022-10-01T04:10:51.642Z,80.00
2022-10-01T04:13:18.692Z,80.17
2022-10-01T04:15:45.774Z,80.31
2022-10-01T04:18:12.883Z,80.07
2022-10-01T04:20:39.934Z,79.89
2022-10-01T04:23:06.981Z,79.97
2022-10-01T04:25:34.334Z,80.02
2022-10-01T04:28:03.140Z,80.17
2022-10-01T04:30:32.830Z,80.13
2022-10-01T04:33:00.188Z,80.02
2022-10-01T04:35:27.744Z,80.09
2022-10-01T04:37:59.314Z,80.12
2022-10-01T04:40:26.549Z,80.23
2022-10-01T04:42:53.598Z,80.31
2022-10-01T04:45:20.643Z,80.16
2022-10-01T04:47:49.296Z,80.28
2022-10-01T04:50:17.017Z,80.33
2022-10-01T04:52:47.416Z,80.49
2022-10-01T04:55:15.551Z,80.42
2022-10-01T04:57:42.637Z,80.30
2022-10-01T05:00:12.415Z,80.37
2022-10-01T05:02:39.460Z,80.48
2022-10-01T05:05:07.638Z,80.47
2022-10-01T05:07:34.940Z,80.36
2022-10-01T05:10:02.071Z,80.09
2022-10-01T05:12:29.123Z,80.02
2022-10-01T05:14:56.524Z,79.97
2022-10-01T05:17:23.725Z,80.05
2022-10-01T05:19:50.874Z,80.07
2022-10-01T05:22:17.922Z,80.11
2022-10-01T05:24:44.968Z,80.27
2022-10-01T05:27:13.558Z,80.40
2022-10-01T05:29:41.734Z,80.33
2022-10-01T05:32:09.492Z,80.27
2022-10-01T05:34:36.740Z,80.26
2022-10-01T05:37:03.891Z,80.26
2022-10-01T05:39:30.945Z,80.34
2022-10-01T05:41:59.145Z,80.43
2022-10-01T05:44:28.617Z,80.16
2022-10-01T05:46:55.705Z,79.86
2022-10-01T05:49:24.621Z,79.83
2022-10-01T05:51:51.608Z,79.78
2022-10-01T05:54:19.923Z,79.69
2022-10-01T05:56:47.049Z,79.59
2022-10-01T05:59:14.077Z,79.52
2022-10-01T06:01:41.266Z,79.40
2022-10-01T06:04:10.522Z,79.59
2022-10-01T06:06:38.092Z,79.77
2022-10-01T06:09:05.538Z,79.59
2022-10-01T06:11:32.828Z,79.37
2022-10-01T06:14:00.043Z,79.61
2022-10-01T06:16:27.204Z,80.16
2022-10-01T06:18:57.773Z,80.59
2022-10-01T06:21:25.796Z,79.83
2022-10-01T06:23:53.248Z,79.03
2022-10-01T06:26:20.268Z,78.88
2022-10-01T06:28:50.925Z,78.68
2022-10-01T06:31:18.842Z,78.46
2022-10-01T06:33:45.862Z,77.21
2022-10-01T06:36:12.912Z,76.16
2022-10-01T06:38:40.141Z,75.24
2022-10-01T06:41:07.155Z,74.74
2022-10-01T06:43:34.241Z,73.95
2022-10-01T06:46:02.903Z,73.42
2022-10-01T06:48:31.152Z,72.19
2022-10-01T06:50:58.557Z,71.46
2022-10-01T06:53:26.864Z,69.86
2022-10-01T06:55:54.288Z,68.77
2022-10-01T06:58:22.562Z,67.81
2022-10-01T07:00:49.986Z,67.60
2022-10-01T07:03:20.023Z,67.48
2022-10-01T07:05:47.717Z,66.06
2022-10-01T07:08:14.921Z,65.63
2022-10-01T07:10:42.168Z,64.67
2022-10-01T07:13:10.736Z,64.90
2022-10-01T07:15:37.997Z,64.35
2022-10-01T07:18:05.737Z,64.45
2022-10-01T07:20:36.284Z,63.98
2022-10-01T07:23:04.843Z,63.75
2022-10-01T07:25:32.321Z,62.28
2022-10-01T07:28:01.190Z,61.28
2022-10-01T07:30:28.668Z,61.33
2022-10-01T07:32:55.726Z,61.12
2022-10-01T07:39:48.573Z,59.28
2022-10-01T07:42:17.484Z,58.11
2022-10-01T07:44:45.049Z,57.79
2022-10-01T07:47:12.502Z,57.32
2022-10-01T07:49:40.163Z,56.85
2022-10-01T07:52:12.372Z,57.08
2022-10-01T07:54:41.158Z,57.65
2022-10-01T07:57:08.271Z,57.78
2022-10-01T07:59:35.345Z,57.95
2022-10-01T08:02:02.391Z,58.17
2022-10-01T08:04:48.151Z,58.22
2022-10-01T08:07:15.708Z,58.46
2022-10-01T08:09:47.568Z,58.03
2022-10-01T08:12:14.617Z,57.75
2022-10-01T08:14:42.175Z,58.11
2022-10-01T08:17:09.323Z,58.72
2022-10-01T08:19:40.375Z,58.07
2022-10-01T08:22:07.517Z,57.63
2022-10-01T08:24:37.642Z,57.48
2022-10-01T08:27:07.348Z,57.82
2022-10-01T08:29:45.186Z,58.17
2022-10-01T08:32:42.031Z,58.50
2022-10-01T08:35:13.746Z,59.69
2022-10-01T08:37:40.805Z,59.55
2022-10-01T08:40:12.349Z,59.66
2022-10-01T08:43:07.583Z,60.14
2022-10-01T08:45:59.137Z,60.44
2022-10-01T08:48:32.473Z,61.22
2022-10-01T08:51:43.156Z,61.57
2022-10-01T08:54:22.681Z,61.65
2022-10-01T08:56:56.383Z,61.69
2022-10-01T08:59:40.438Z,61.96
2022-10-01T09:02:25.294Z,62.20
2022-10-01T09:05:04.798Z,62.02
2022-10-01T09:07:50.934Z,62.06
2022-10-01T09:10:30.980Z,62.47
2022-10-01T09:13:28.876Z,63.10
2022-10-01T09:16:35.896Z,63.58
2022-10-01T09:19:47.725Z,63.72
2022-10-01T09:22:41.506Z,63.89
2022-10-01T09:25:17.258Z,64.33
2022-10-01T09:27:44.418Z,64.52
2022-10-01T09:30:19.478Z,64.89
2022-10-01T09:32:54.906Z,65.24
2022-10-01T09:35:55.005Z,66.63
2022-10-01T09:38:43.358Z,67.16
2022-10-01T09:41:10.906Z,66.75
2022-10-01T09:43:39.294Z,65.28
2022-10-01T09:46:13.785Z,62.83
2022-10-01T09:48:46.498Z,61.59
2022-10-01T09:51:23.247Z,60.00
2022-10-01T09:54:21.386Z,57.78
2022-10-01T09:57:00.268Z,55.73
2022-10-01T09:59:53.323Z,53.83
2022-10-01T10:02:24.762Z,53.36
2022-10-01T10:05:17.736Z,53.66
2022-10-01T10:07:55.636Z,52.70
2022-10-01T10:10:29.543Z,52.70
2022-10-01T10:12:59.969Z,52.27
2022-10-01T10:15:30.142Z,51.99
2022-10-01T10:18:22.955Z,51.55
2022-10-01T10:20:52.136Z,51.00
2022-10-01T10:23:20.820Z,50.82
2022-10-01T10:26:03.039Z,51.18
2022-10-01T10:28:46.962Z,50.54
2022-10-01T10:31:25.313Z,49.42
2022-10-01T10:34:23.251Z,49.12
2022-10-01T10:36:52.556Z,48.29
2022-10-01T10:39:22.670Z,47.28
2022-10-01T10:41:53.788Z,46.40
2022-10-01T10:44:21.575Z,46.28
2022-10-01T10:46:49.438Z,46.99
2022-10-01T10:49:30.317Z,47.28
2022-10-01T10:52:01.062Z,47.51
2022-10-01T10:54:28.099Z,47.99
2022-10-01T10:57:03.794Z,47.64
2022-10-01T10:59:32.883Z,48.46
2022-10-01T11:02:01.268Z,48.96
2022-10-01T11:04:42.705Z,49.03
2022-10-01T11:07:11.009Z,49.59
2022-10-01T11:10:05.986Z,49.97
2022-10-01T11:12:56.788Z,50.17
2022-10-01T11:15:30.799Z,50.65
2022-10-01T11:18:10.787Z,50.93
2022-10-01T11:20:40.766Z,51.17
2022-10-01T11:23:47.353Z,51.85
2022-10-01T11:26:30.670Z,52.35
2022-10-01T11:29:02.013Z,53.40
2022-10-01T11:31:52.766Z,54.04
2022-10-01T11:35:01.599Z,54.55
2022-10-01T11:38:00.026Z,55.51
2022-10-01T11:40:36.024Z,56.24
2022-10-01T11:43:07.157Z,56.56
2022-10-01T11:45:38.445Z,56.86
2022-10-01T11:48:07.977Z,57.30
2022-10-01T11:50:39.212Z,56.91
2022-10-01T11:53:18.045Z,57.59
2022-10-01T11:56:06.546Z,57.52
2022-10-01T11:58:53.092Z,57.58
2022-10-01T12:01:39.411Z,57.41
2022-10-01T12:04:12.602Z,56.74
2022-10-01T12:06:45.249Z,56.73
2022-10-01T12:09:44.884Z,56.85
2022-10-01T12:12:20.338Z,57.23
2022-10-01T12:15:06.236Z,57.29
2022-10-01T12:18:12.485Z,57.59
2022-10-01T12:20:50.489Z,57.88
2022-10-01T12:23:22.761Z,57.98
2022-10-01T12:26:09.466Z,57.80
2022-10-01T12:28:55.553Z,57.75
2022-10-01T12:31:43.835Z,57.09
2022-10-01T12:34:40.544Z,57.36
2022-10-01T12:37:46.197Z,57.86
2022-10-01T12:40:49.083Z,57.65
2022-10-01T12:43:24.128Z,56.55
2022-10-01T12:46:32.591Z,56.03
2022-10-01T12:49:13.822Z,55.96
2022-10-01T12:51:45.491Z,56.23
2022-10-01T12:54:26.701Z,56.81
2022-10-01T12:57:04.961Z,57.58
2022-10-01T13:00:00.898Z,58.27
2022-10-01T13:02:53.298Z,58.70
2022-10-01T13:05:29.644Z,58.17
2022-10-01T13:08:00.122Z,57.39
2022-10-01T13:10:59.155Z,56.71
2022-10-01T13:13:41.836Z,56.82
2022-10-01T13:16:13.540Z,57.04
2022-10-01T13:19:09.002Z,57.10
2022-10-01T13:21:39.120Z,56.94
2022-10-01T13:24:10.160Z,57.29
2022-10-01T13:27:05.984Z,57.37
2022-10-01T13:29:48.104Z,57.57
2022-10-01T13:32:34.746Z,57.56
2022-10-01T13:35:24.267Z,57.66
2022-10-01T13:37:51.419Z,57.99
2022-10-01T13:40:32.798Z,58.19
2022-10-01T13:43:19.916Z,58.46
2022-10-01T13:45:48.574Z,58.38
2022-10-01T13:48:24.252Z,58.73
2022-10-01T13:51:06.150Z,58.72
2022-10-01T13:53:37.698Z,58.70
2022-10-01T13:56:05.470Z,58.93
2022-10-01T13:58:36.159Z,59.00
2022-10-01T14:01:05.641Z,59.15
2022-10-01T14:03:34.697Z,59.43
2022-10-01T14:06:03.072Z,59.66
2022-10-01T14:08:50.145Z,59.86
2022-10-01T14:11:46.142Z,60.06
2022-10-01T14:14:38.364Z,59.83
2022-10-01T14:17:05.808Z,60.24
2022-10-01T14:19:33.166Z,60.60
2022-10-01T14:22:04.063Z,60.47
2022-10-01T14:26:01.466Z,60.31
2022-10-01T14:28:53.603Z,60.08
2022-10-01T14:31:33.482Z,60.22
2022-10-01T14:34:28.860Z,60.13
2022-10-01T14:36:55.906Z,60.56
2022-10-01T14:39:27.278Z,60.72
2022-10-01T14:41:55.294Z,61.45
2022-10-01T14:44:29.416Z,61.78
2022-10-01T14:46:58.297Z,62.14
2022-10-01T14:49:30.263Z,62.48
2022-10-01T14:52:08.275Z,62.55
2022-10-01T14:54:57.131Z,62.50
2022-10-01T14:58:15.866Z,62.75
2022-10-01T15:00:50.801Z,62.78
2022-10-01T15:04:05.628Z,63.22
2022-10-01T15:10:32.464Z,64.10
2022-10-01T15:13:05.863Z,64.35
2022-10-01T15:19:14.164Z,65.35
2022-10-01T15:22:02.510Z,65.46
2022-10-01T15:24:41.343Z,65.79
2022-10-01T15:27:11.859Z,65.74
2022-10-01T15:29:40.344Z,65.87
2022-10-01T15:32:59.172Z,66.20
2022-10-01T15:35:26.553Z,66.38
2022-10-01T15:37:53.957Z,66.39
2022-10-01T15:40:23.974Z,66.80
2022-10-01T15:43:09.556Z,67.27
2022-10-01T15:45:36.602Z,67.39
2022-10-01T15:48:03.760Z,67.67
2022-10-01T15:50:36.786Z,68.09
2022-10-01T15:53:17.311Z,68.32
2022-10-01T15:55:47.838Z,68.57
2022-10-01T15:58:22.052Z,68.87
2022-10-01T16:01:12.586Z,69.26
2022-10-01T16:03:42.060Z,69.44
2022-10-01T16:06:18.731Z,69.89
2022-10-01T16:08:52.225Z,70.11
2022-10-01T16:11:20.507Z,70.37
2022-10-01T16:13:49.290Z,70.57
2022-10-01T16:16:29.972Z,70.68
2022-10-01T16:19:28.567Z,70.75
2022-10-01T16:22:21.289Z,70.74
2022-10-01T16:24:49.365Z,70.79
2022-10-01T16:27:20.610Z,70.91
2022-10-01T16:30:20.652Z,70.98
2022-10-01T16:32:48.186Z,71.00
2022-10-01T16:35:16.400Z,71.09
2022-10-01T16:37:44.327Z,71.19
2022-10-01T16:40:16.039Z,71.55
2022-10-01T16:42:44.365Z,71.64
2022-10-01T16:45:19.010Z,71.83
2022-10-01T16:47:46.238Z,71.94
2022-10-01T16:50:15.018Z,71.97
2022-10-01T16:52:42.098Z,72.26
2022-10-01T16:55:26.536Z,72.27
2022-10-01T16:57:56.960Z,72.34
2022-10-01T17:00:27.896Z,72.55
2022-10-01T17:02:55.441Z,72.76
2022-10-01T17:05:27.413Z,72.79
2022-10-01T17:07:55.381Z,72.95
2022-10-01T17:10:22.838Z,72.88
2022-10-01T17:12:49.927Z,73.09
2022-10-01T17:15:19.442Z,73.17
2022-10-01T17:41:23.272Z,74.14
2022-10-01T17:43:50.400Z,74.13
2022-10-01T17:46:17.433Z,74.26
2022-10-01T17:48:45.009Z,74.43
2022-10-01T17:51:14.716Z,74.37
2022-10-01T17:53:42.850Z,74.35
2022-10-01T17:56:15.478Z,74.70
2022-10-01T17:58:45.378Z,74.59
2022-10-01T18:01:19.967Z,74.53
2022-10-01T18:03:47.911Z,74.24
2022-10-01T18:06:17.479Z,74.22
2022-10-01T18:08:55.116Z,74.33
2022-10-01T18:11:24.684Z,74.18
2022-10-01T18:13:52.803Z,74.06
2022-10-01T18:16:20.288Z,73.72
2022-10-01T18:21:36.644Z,73.34
2022-10-01T18:24:05.172Z,73.00
2022-10-01T18:26:33.906Z,72.88
2022-10-01T18:29:01.558Z,72.83
2022-10-01T18:31:41.666Z,72.74
2022-10-01T18:34:17.589Z,72.81
2022-10-01T18:36:55.673Z,72.82
2022-10-01T18:39:35.948Z,72.87
2022-10-01T18:42:04.013Z,72.86
2022-10-01T18:44:31.102Z,72.83
2022-10-01T18:47:46.026Z,72.53
2022-10-01T18:50:30.855Z,72.38
2022-10-01T18:53:25.998Z,71.85
2022-10-01T18:56:25.498Z,71.67
2022-10-01T18:58:52.546Z,71.69
2022-10-01T19:01:29.746Z,71.44
2022-10-01T19:04:32.420Z,71.31
2022-10-01T19:07:02.453Z,71.01
2022-10-01T19:09:36.656Z,71.04
2022-10-01T19:12:08.095Z,70.95
2022-10-01T19:14:41.284Z,71.28
2022-10-01T19:17:11.304Z,71.03
2022-10-01T19:20:10.406Z,70.88
2022-10-01T19:23:01.205Z,70.44
2022-10-01T19:25:43.511Z,70.41
2022-10-01T19:28:26.001Z,70.61
2022-10-01T19:31:15.540Z,70.88
2022-10-01T19:33:49.254Z,70.60
2022-10-01T19:36:34.597Z,70.89
2022-10-01T19:39:04.889Z,71.11
2022-10-01T19:41:43.420Z,71.27
2022-10-01T19:44:19.983Z,71.51
2022-10-01T19:46:47.727Z,71.58
2022-10-01T19:49:21.842Z,71.82
2022-10-01T19:51:56.798Z,71.57
2022-10-01T19:54:27.817Z,71.74
2022-10-01T19:56:57.061Z,71.77
2022-10-01T19:59:24.201Z,72.07
2022-10-01T20:02:06.064Z,72.11
2022-10-01T20:04:39.573Z,71.84
2022-10-01T20:07:18.293Z,71.88
2022-10-01T20:09:46.703Z,71.95
2022-10-01T20:12:27.031Z,72.18
2022-10-01T20:15:09.877Z,72.32
2022-10-01T20:17:43.060Z,72.27
2022-10-01T20:20:41.216Z,72.43
2022-10-01T20:23:27.516Z,72.61
2022-10-01T20:26:25.896Z,72.86
2022-10-01T20:28:59.296Z,73.00
2022-10-01T20:31:39.808Z,73.09
2022-10-01T20:34:10.418Z,73.24
2022-10-01T20:36:49.106Z,73.42
2022-10-01T20:39:22.917Z,73.17
2022-10-01T20:41:53.416Z,72.74
2022-10-01T20:44:34.622Z,72.93
2022-10-01T20:47:36.720Z,73.02
2022-10-01T20:50:12.425Z,72.82
2022-10-01T20:52:53.415Z,72.93
2022-10-01T20:55:27.019Z,73.23
2022-10-01T20:57:57.802Z,73.26
2022-10-01T21:00:27.012Z,73.46
2022-10-01T21:03:05.619Z,73.71
2022-10-01T21:05:43.436Z,73.76
2022-10-01T21:08:42.651Z,73.83
2022-10-01T21:11:45.660Z,73.93
2022-10-01T21:14:21.650Z,73.86
2022-10-01T21:17:13.677Z,74.15
2022-10-01T21:19:43.766Z,74.11
2022-10-01T21:22:17.265Z,74.26
2022-10-01T21:25:02.748Z,74.45
2022-10-01T21:27:33.680Z,74.65
2022-10-01T21:30:14.770Z,74.76
2022-10-01T21:32:51.127Z,74.89
2022-10-01T21:35:43.285Z,75.10
2022-10-01T21:38:51.063Z,75.02
2022-10-01T21:41:27.942Z,75.03
2022-10-01T21:44:11.189Z,75.19
2022-10-01T21:47:05.966Z,75.42
2022-10-01T21:49:48.298Z,75.46
2022-10-01T21:52:45.318Z,75.16
2022-10-01T21:55:32.080Z,75.29
2022-10-01T21:58:15.922Z,75.27
2022-10-01T22:00:43.277Z,75.40
2022-10-01T22:03:23.586Z,75.40
2022-10-01T22:05:57.695Z,75.45
2022-10-01T22:08:30.927Z,75.40
2022-10-01T22:11:02.054Z,75.50
2022-10-01T22:13:37.221Z,75.69
2022-10-01T22:16:07.857Z,75.73
2022-10-01T22:18:45.599Z,75.73
2022-10-01T22:21:14.382Z,75.80
2022-10-01T22:23:45.391Z,75.95
2022-10-01T22:26:15.893Z,76.04
2022-10-01T22:28:42.993Z,76.09
2022-10-01T22:31:15.958Z,75.84
2022-10-01T22:34:01.949Z,76.02
2022-10-01T22:36:35.740Z,76.17
2022-10-01T22:39:06.843Z,76.21
2022-10-01T22:41:47.822Z,76.26
2022-10-01T22:44:22.117Z,76.29
2022-10-01T22:46:49.046Z,76.38
2022-10-01T22:49:33.825Z,76.27
2022-10-01T22:52:14.612Z,76.48
2022-10-01T22:54:50.757Z,76.50
2022-10-01T22:57:39.261Z,76.45
2022-10-01T23:00:07.972Z,76.44
2022-10-01T23:03:07.095Z,76.48
2022-10-01T23:05:49.507Z,76.76
2022-10-01T23:08:40.817Z,76.62
2022-10-01T23:11:34.325Z,76.80
2022-10-01T23:14:16.687Z,77.04
2022-10-01T23:17:06.780Z,77.06
2022-10-01T23:19:33.845Z,77.06
2022-10-01T23:22:04.057Z,76.77
2022-10-01T23:24:34.268Z,76.05
2022-10-01T23:27:14.344Z,75.62
2022-10-01T23:30:04.538Z,75.23
2022-10-01T23:32:56.055Z,74.63
2022-10-01T23:35:31.795Z,74.33
2022-10-01T23:38:14.252Z,74.04
2022-10-01T23:40:42.364Z,73.61
2022-10-01T23:43:26.858Z,73.59
2022-10-01T23:46:16.230Z,73.25
2022-10-01T23:48:54.533Z,73.15
2022-10-01T23:51:27.328Z,73.49
2022-10-01T23:54:32.422Z,73.40
2022-10-01T23:57:25.996Z,73.77
2022-10-01T23:59:55.899Z,74.17
